createdAt,value
2019-05-09T00:01:26.711Z,10.40
2019-05-09T00:03:56.471Z,9.57
2019-05-09T00:06:26.275Z,9.53
2019-05-09T00:08:56.044Z,10.27
2019-05-09T00:11:25.839Z,10.53
2019-05-09T00:13:55.588Z,10.70
2019-05-09T00:16:25.277Z,10.00
2019-05-09T00:18:55.133Z,10.57
2019-05-09T00:21:30.454Z,10.40
2019-05-09T00:24:00.198Z,9.90
2019-05-09T00:26:29.964Z,10.77
2019-05-09T00:29:03.940Z,11.13
2019-05-09T00:31:58.310Z,10.83
2019-05-09T00:34:37.690Z,11.17
2019-05-09T00:37:07.437Z,10.20
2019-05-09T00:39:37.128Z,11.07
2019-05-09T00:42:06.883Z,11.13
2019-05-09T00:44:38.251Z,11.37
2019-05-09T00:47:23.953Z,11.03
2019-05-09T00:49:54.234Z,11.43
2019-05-09T00:52:24.065Z,12.40
2019-05-09T00:54:53.760Z,12.27
2019-05-09T00:57:35.863Z,12.23
2019-05-09T01:00:09.736Z,12.80
2019-05-09T01:02:39.435Z,13.03
2019-05-09T01:05:09.210Z,12.70
2019-05-09T01:07:38.948Z,11.77
2019-05-09T01:10:09.292Z,12.37
2019-05-09T01:12:39.059Z,12.97
2019-05-09T01:15:09.871Z,12.47
2019-05-09T01:17:39.684Z,13.00
2019-05-09T01:20:10.774Z,14.13
2019-05-09T01:22:40.513Z,12.33
2019-05-09T01:25:10.544Z,13.07
2019-05-09T01:27:40.311Z,12.07
2019-05-09T01:30:10.763Z,12.97
2019-05-09T01:32:59.455Z,12.80
2019-05-09T01:35:29.166Z,12.73
2019-05-09T01:37:58.863Z,12.00
2019-05-09T01:40:28.661Z,11.53
2019-05-09T01:42:58.351Z,12.90
2019-05-09T01:45:28.075Z,11.57
2019-05-09T01:47:57.804Z,10.27
2019-05-09T01:50:27.506Z,10.30
2019-05-09T01:52:57.292Z,10.50
2019-05-09T01:55:47.204Z,8.73
2019-05-09T01:58:16.906Z,7.27
2019-05-09T02:00:46.596Z,8.07
2019-05-09T02:03:16.311Z,7.13
2019-05-09T02:05:46.079Z,6.07
2019-05-09T02:08:16.573Z,6.80
2019-05-09T02:10:46.401Z,6.10
2019-05-09T02:13:16.085Z,6.23
2019-05-09T02:16:07.469Z,5.50
2019-05-09T02:18:45.056Z,5.30
2019-05-09T02:21:14.825Z,5.00
2019-05-09T02:23:44.613Z,4.53
2019-05-09T02:26:14.454Z,5.43
2019-05-09T02:28:44.211Z,5.00
2019-05-09T02:31:16.306Z,4.97
2019-05-09T02:33:45.923Z,5.23
2019-05-09T02:36:18.741Z,4.43
2019-05-09T02:38:48.687Z,4.97
2019-05-09T02:41:19.708Z,4.60
2019-05-09T02:43:50.024Z,5.17
2019-05-09T02:46:29.386Z,4.53
2019-05-09T02:48:59.463Z,4.37
2019-05-09T02:51:29.624Z,4.20
2019-05-09T02:54:00.288Z,4.67
2019-05-09T02:56:30.036Z,3.67
2019-05-09T02:59:18.949Z,4.73
2019-05-09T03:01:58.310Z,3.30
2019-05-09T03:04:28.406Z,4.03
2019-05-09T03:06:59.614Z,4.20
2019-05-09T03:09:30.841Z,3.80
2019-05-09T03:12:20.527Z,4.33
2019-05-09T03:14:32.103Z,3.70
2019-05-09T03:17:01.784Z,3.97
2019-05-09T03:19:31.498Z,3.30
2019-05-09T03:22:08.760Z,3.07
2019-05-09T03:24:39.402Z,3.23
2019-05-09T03:27:15.216Z,3.33
2019-05-09T03:29:49.141Z,2.93
2019-05-09T03:32:19.651Z,3.40
2019-05-09T03:34:49.502Z,2.80
2019-05-09T03:37:19.265Z,3.90
2019-05-09T03:39:49.159Z,3.70
2019-05-09T03:42:21.594Z,3.90
2019-05-09T03:44:50.273Z,4.33
2019-05-09T03:47:47.910Z,4.30
2019-05-09T03:50:18.420Z,4.33
2019-05-09T03:52:48.174Z,4.77
2019-05-09T03:55:22.449Z,5.57
2019-05-09T03:57:58.771Z,5.27
2019-05-09T04:00:28.591Z,5.10
2019-05-09T04:02:58.278Z,5.13
2019-05-09T04:05:28.284Z,5.23
2019-05-09T04:08:18.221Z,5.63
2019-05-09T04:10:52.379Z,5.53
2019-05-09T04:13:28.147Z,5.40
2019-05-09T04:15:58.229Z,5.20
2019-05-09T04:18:28.198Z,5.53
2019-05-09T04:20:57.857Z,5.23
2019-05-09T04:23:27.748Z,5.47
2019-05-09T04:26:07.582Z,4.50
2019-05-09T04:28:39.639Z,5.53
2019-05-09T04:31:08.594Z,5.20
2019-05-09T04:33:38.474Z,5.90
2019-05-09T04:36:08.448Z,6.40
2019-05-09T04:38:39.978Z,5.10
2019-05-09T04:41:09.644Z,5.93
2019-05-09T04:43:41.029Z,5.90
2019-05-09T04:46:12.904Z,5.73
2019-05-09T04:48:42.238Z,4.50
2019-05-09T04:54:33.097Z,5.30
2019-05-09T04:57:02.870Z,5.60
2019-05-09T04:59:32.595Z,4.80
2019-05-09T05:02:18.270Z,5.47
2019-05-09T05:04:48.110Z,5.90
2019-05-09T05:07:18.175Z,5.70
2019-05-09T05:09:48.464Z,5.87
2019-05-09T05:12:18.650Z,5.93
2019-05-09T05:14:48.507Z,5.47
2019-05-09T05:17:18.292Z,6.37
2019-05-09T05:19:48.536Z,5.90
2019-05-09T05:22:25.113Z,5.73
2019-05-09T05:25:00.210Z,5.40
2019-05-09T05:27:29.920Z,4.67
2019-05-09T05:29:59.611Z,5.03
2019-05-09T05:32:38.904Z,4.70
2019-05-09T05:35:28.424Z,5.00
2019-05-09T05:37:58.317Z,4.90
2019-05-09T05:40:32.758Z,5.57
2019-05-09T05:42:59.567Z,5.83
2019-05-09T05:45:31.180Z,5.37
2019-05-09T05:48:05.192Z,4.93
2019-05-09T05:50:34.949Z,4.73
2019-05-09T05:53:04.750Z,4.40
2019-05-09T05:55:34.466Z,4.87
2019-05-09T05:58:04.296Z,4.60
2019-05-09T06:00:33.928Z,4.57
2019-05-09T06:03:03.869Z,4.63
2019-05-09T06:05:33.559Z,4.60
2019-05-09T06:08:03.341Z,4.83
2019-05-09T06:10:33.012Z,4.53
2019-05-09T06:13:02.745Z,4.10
2019-05-09T06:15:32.437Z,4.50
2019-05-09T06:18:02.165Z,4.27
2019-05-09T06:20:31.976Z,4.73
2019-05-09T06:23:01.656Z,4.50
2019-05-09T06:25:31.400Z,4.13
2019-05-09T06:28:01.254Z,4.40
2019-05-09T06:30:32.690Z,3.80
2019-05-09T06:33:04.865Z,4.57
2019-05-09T06:35:33.894Z,4.17
2019-05-09T06:38:03.673Z,4.53
2019-05-09T06:40:34.375Z,3.70
2019-05-09T06:43:18.387Z,4.40
2019-05-09T06:46:12.731Z,4.23
2019-05-09T06:48:42.477Z,3.70
2019-05-09T06:51:12.316Z,3.87
2019-05-09T06:53:42.075Z,4.00
2019-05-09T06:59:38.950Z,3.13
2019-05-09T07:02:14.524Z,3.50
2019-05-09T07:04:47.654Z,3.50
2019-05-09T07:07:23.938Z,3.00
2019-05-09T07:09:58.603Z,2.80
2019-05-09T07:12:28.301Z,2.43
2019-05-09T07:14:58.338Z,2.70
2019-05-09T07:17:31.715Z,1.73
2019-05-09T07:20:00.758Z,2.33
2019-05-09T07:22:35.212Z,2.70
2019-05-09T07:25:20.374Z,2.63
2019-05-09T07:27:50.112Z,2.03
2019-05-09T07:30:29.147Z,2.67
2019-05-09T07:33:11.004Z,2.43
2019-05-09T07:35:41.673Z,2.80
2019-05-09T07:38:11.360Z,3.03
2019-05-09T07:40:41.077Z,3.27
2019-05-09T07:43:10.762Z,3.10
2019-05-09T07:45:42.418Z,3.50
2019-05-09T07:48:12.120Z,3.57
2019-05-09T07:50:41.809Z,2.53
2019-05-09T07:53:11.478Z,2.60
2019-05-09T07:55:41.197Z,2.13
2019-05-09T07:58:14.241Z,3.07
2019-05-09T08:00:42.355Z,2.27
2019-05-09T08:03:13.239Z,2.20
2019-05-09T08:05:43.179Z,1.83
2019-05-09T08:08:18.600Z,1.83
2019-05-09T08:10:48.288Z,2.80
2019-05-09T08:13:21.349Z,2.00
2019-05-09T08:15:49.336Z,2.30
2019-05-09T08:18:18.992Z,2.30
2019-05-09T08:20:48.731Z,2.30
2019-05-09T08:23:18.442Z,2.03
2019-05-09T08:25:48.561Z,2.60
2019-05-09T08:28:20.133Z,2.47
2019-05-09T08:30:50.003Z,2.27
2019-05-09T08:33:20.736Z,2.60
2019-05-09T08:35:52.603Z,2.27
2019-05-09T08:38:21.993Z,2.00
2019-05-09T08:41:09.195Z,2.43
2019-05-09T08:43:41.050Z,2.50
2019-05-09T08:46:12.109Z,2.20
2019-05-09T08:48:42.305Z,2.60
2019-05-09T08:51:23.345Z,2.23
2019-05-09T08:53:53.106Z,2.87
2019-05-09T08:56:22.847Z,2.73
2019-05-09T08:58:52.589Z,3.00
2019-05-09T09:01:31.079Z,2.50
2019-05-09T09:03:53.849Z,2.40
2019-05-09T09:06:23.565Z,2.10
2019-05-09T09:08:53.232Z,2.33
2019-05-09T09:11:22.979Z,2.60
2019-05-09T09:13:52.736Z,2.30
2019-05-09T09:16:22.726Z,2.40
2019-05-09T09:18:53.599Z,2.20
2019-05-09T09:21:23.293Z,2.20
2019-05-09T09:23:52.946Z,2.47
2019-05-09T09:26:22.685Z,2.40
2019-05-09T09:28:52.429Z,2.47
2019-05-09T09:31:22.180Z,2.40
2019-05-09T09:33:51.877Z,2.17
2019-05-09T09:36:21.766Z,2.70
2019-05-09T09:38:52.419Z,2.97
2019-05-09T09:41:22.101Z,2.17
2019-05-09T09:43:51.838Z,2.80
2019-05-09T09:46:21.586Z,2.73
2019-05-09T09:48:51.277Z,3.17
2019-05-09T09:51:20.972Z,2.73
2019-05-09T09:53:50.680Z,2.90
2019-05-09T09:56:22.627Z,3.20
2019-05-09T09:59:01.627Z,3.10
2019-05-09T10:01:33.378Z,3.13
2019-05-09T10:04:19.857Z,3.07
2019-05-09T10:06:44.331Z,3.30
2019-05-09T10:09:14.065Z,3.23
2019-05-09T10:11:43.839Z,3.80
2019-05-09T10:14:18.748Z,3.63
2019-05-09T10:17:03.533Z,4.13
2019-05-09T10:19:50.662Z,4.00
2019-05-09T10:22:24.516Z,3.77
2019-05-09T10:24:53.322Z,3.00
2019-05-09T10:27:23.088Z,2.83
2019-05-09T10:29:52.876Z,2.37
2019-05-09T10:32:22.592Z,2.27
2019-05-09T10:34:52.282Z,2.07
2019-05-09T10:37:21.981Z,2.30
2019-05-09T10:39:51.740Z,2.50
2019-05-09T10:42:31.782Z,2.70
2019-05-09T10:45:29.280Z,2.30
2019-05-09T10:47:59.037Z,2.47
2019-05-09T10:50:34.085Z,2.30
2019-05-09T10:53:00.156Z,2.23
2019-05-09T10:55:29.823Z,2.80
2019-05-09T10:58:02.372Z,2.67
2019-05-09T11:00:30.998Z,2.57
2019-05-09T11:03:00.706Z,3.00
2019-05-09T11:05:30.394Z,3.00
2019-05-09T11:08:00.197Z,2.80
2019-05-09T11:10:32.858Z,2.63
2019-05-09T11:13:03.799Z,2.70
2019-05-09T11:15:33.532Z,2.70
2019-05-09T11:18:03.302Z,3.10
2019-05-09T11:20:33.035Z,3.07
2019-05-09T11:23:02.757Z,2.50
2019-05-09T11:25:32.529Z,2.57
2019-05-09T11:28:10.861Z,2.70
2019-05-09T11:30:33.985Z,2.20
2019-05-09T11:33:03.676Z,2.57
2019-05-09T11:35:33.455Z,2.80
2019-05-09T11:38:03.154Z,2.80
2019-05-09T11:40:32.869Z,2.87
2019-05-09T11:43:02.554Z,2.80
2019-05-09T11:45:33.366Z,3.47
2019-05-09T11:48:03.122Z,2.50
2019-05-09T11:50:32.888Z,2.40
2019-05-09T11:53:02.642Z,2.80
2019-05-09T11:55:35.934Z,3.10
2019-05-09T11:58:03.741Z,2.13
2019-05-09T12:00:33.433Z,1.77
2019-05-09T12:03:03.148Z,1.90
2019-05-09T12:05:32.906Z,2.40
2019-05-09T12:08:02.597Z,1.67
2019-05-09T12:10:33.459Z,1.80
2019-05-09T12:13:03.164Z,2.50
2019-05-09T12:15:32.838Z,2.30
2019-05-09T12:18:08.119Z,1.87
2019-05-09T12:20:34.013Z,1.80
2019-05-09T12:23:04.718Z,1.53
2019-05-09T12:25:38.609Z,1.90
2019-05-09T12:28:08.638Z,2.03
2019-05-09T12:30:38.398Z,2.50
2019-05-09T12:33:08.728Z,3.13
2019-05-09T12:35:38.710Z,2.67
2019-05-09T12:38:08.550Z,2.23
2019-05-09T12:40:38.901Z,1.77
2019-05-09T12:43:09.252Z,1.93
2019-05-09T12:45:38.991Z,3.30
2019-05-09T12:48:15.108Z,3.50
2019-05-09T12:50:40.161Z,2.30
2019-05-09T12:53:09.837Z,1.60
2019-05-09T12:55:39.520Z,1.63
2019-05-09T12:58:27.853Z,1.30
2019-05-09T13:00:59.293Z,1.20
2019-05-09T13:03:29.848Z,1.00
2019-05-09T13:05:59.621Z,1.00
2019-05-09T13:08:29.337Z,1.20
2019-05-09T13:11:02.323Z,1.30
2019-05-09T13:13:32.352Z,1.10
2019-05-09T13:16:23.873Z,1.00
2019-05-09T13:19:07.200Z,1.23
2019-05-09T13:21:38.976Z,0.93
2019-05-09T13:24:08.715Z,1.10
2019-05-09T13:26:40.825Z,1.00
2019-05-09T13:29:10.513Z,1.10
2019-05-09T13:31:40.222Z,0.90
2019-05-09T13:34:09.889Z,1.10
2019-05-09T13:36:39.639Z,1.10
2019-05-09T13:39:10.724Z,1.20
2019-05-09T13:41:40.759Z,1.03
2019-05-09T13:44:13.527Z,1.37
2019-05-09T13:46:41.873Z,1.10
2019-05-09T13:49:15.392Z,1.20
2019-05-09T13:51:51.031Z,1.20
2019-05-09T13:54:15.582Z,1.10
2019-05-09T13:56:50.493Z,1.00
2019-05-09T13:59:19.241Z,1.10
2019-05-09T14:01:48.995Z,1.23
2019-05-09T14:04:18.739Z,1.30
2019-05-09T14:06:48.866Z,1.00
2019-05-09T14:09:19.978Z,1.00
2019-05-09T14:11:49.901Z,0.90
2019-05-09T14:14:19.595Z,1.07
2019-05-09T14:16:49.366Z,0.80
2019-05-09T14:19:39.614Z,0.97
2019-05-09T14:21:50.464Z,1.00
2019-05-09T14:24:20.169Z,1.00
2019-05-09T14:26:49.965Z,0.90
2019-05-09T14:29:20.753Z,0.80
2019-05-09T14:31:50.591Z,0.80
2019-05-09T14:34:20.307Z,1.00
2019-05-09T14:36:51.097Z,1.17
2019-05-09T14:39:20.821Z,0.80
2019-05-09T14:41:50.493Z,0.80
2019-05-09T14:44:20.180Z,0.90
2019-05-09T14:46:50.270Z,0.70
2019-05-09T14:49:19.968Z,0.70
2019-05-09T14:51:50.187Z,0.90
2019-05-09T14:54:20.196Z,0.97
2019-05-09T14:56:49.933Z,0.70
2019-05-09T14:59:19.579Z,0.60
2019-05-09T15:01:49.734Z,0.83
2019-05-09T15:04:19.518Z,0.60
2019-05-09T15:06:49.325Z,0.87
2019-05-09T15:09:19.000Z,0.70
2019-05-09T15:11:48.858Z,0.87
2019-05-09T15:14:18.529Z,0.70
2019-05-09T15:16:49.373Z,0.90
2019-05-09T15:19:19.115Z,0.90
2019-05-09T15:21:49.084Z,0.70
2019-05-09T15:24:19.469Z,0.60
2019-05-09T15:26:49.415Z,0.70
2019-05-09T15:29:19.171Z,0.80
2019-05-09T15:31:54.571Z,0.77
2019-05-09T15:34:20.388Z,0.87
2019-05-09T15:36:50.160Z,0.70
2019-05-09T15:39:19.881Z,1.50
2019-05-09T15:41:49.727Z,0.70
2019-05-09T15:44:19.468Z,0.70
2019-05-09T15:46:56.698Z,0.70
2019-05-09T15:49:28.528Z,0.60
2019-05-09T15:51:59.250Z,0.80
2019-05-09T15:54:29.525Z,0.80
2019-05-09T15:56:59.473Z,0.70
2019-05-09T15:59:29.143Z,0.90
2019-05-09T16:01:58.968Z,0.90
2019-05-09T16:04:28.712Z,0.83
2019-05-09T16:06:58.420Z,0.70
2019-05-09T16:09:28.712Z,0.60
2019-05-09T16:11:58.496Z,0.80
2019-05-09T16:14:28.195Z,0.80
2019-05-09T16:16:57.872Z,0.67
2019-05-09T16:19:27.760Z,0.80
2019-05-09T16:21:57.562Z,0.70
2019-05-09T16:24:28.014Z,0.70
2019-05-09T16:26:58.164Z,0.80
2019-05-09T16:29:29.287Z,0.60
2019-05-09T16:31:59.377Z,0.70
2019-05-09T16:34:29.083Z,0.70
2019-05-09T16:36:58.761Z,0.77
2019-05-09T16:39:28.470Z,0.80
2019-05-09T16:41:59.192Z,1.00
2019-05-09T16:44:29.216Z,0.90
2019-05-09T16:46:59.072Z,0.77
2019-05-09T16:49:29.431Z,1.10
2019-05-09T16:51:59.418Z,1.03
2019-05-09T16:54:33.171Z,0.80
2019-05-09T16:57:02.899Z,0.90
2019-05-09T16:59:32.908Z,1.00
2019-05-09T17:02:17.846Z,1.10
2019-05-09T17:04:34.112Z,0.90
2019-05-09T17:07:03.989Z,0.90
2019-05-09T17:09:37.754Z,1.00
2019-05-09T17:12:08.347Z,0.97
2019-05-09T17:14:38.228Z,0.80
2019-05-09T17:17:08.502Z,1.00
2019-05-09T17:19:38.173Z,0.87
2019-05-09T17:22:18.345Z,0.83
2019-05-09T17:24:49.707Z,0.70
2019-05-09T17:27:19.548Z,0.87
2019-05-09T17:29:49.801Z,0.70
2019-05-09T17:32:19.776Z,0.90
2019-05-09T17:34:49.495Z,0.80
2019-05-09T17:37:19.169Z,0.80
2019-05-09T17:39:49.013Z,0.77
2019-05-09T17:42:18.775Z,0.80
2019-05-09T17:44:48.978Z,0.80
2019-05-09T17:47:19.765Z,0.77
2019-05-09T17:49:49.609Z,0.90
2019-05-09T17:52:19.326Z,1.40
2019-05-09T17:54:49.143Z,1.37
2019-05-09T17:57:19.145Z,1.73
2019-05-09T17:59:49.119Z,1.43
2019-05-09T18:02:18.921Z,1.57
2019-05-09T18:07:59.084Z,2.77
2019-05-09T18:10:28.897Z,2.93
2019-05-09T18:12:58.936Z,3.00
2019-05-09T18:15:43.450Z,2.50
2019-05-09T18:18:13.827Z,1.63
2019-05-09T18:20:43.765Z,1.40
2019-05-09T18:23:13.734Z,1.27
2019-05-09T18:25:43.589Z,1.63
2019-05-09T18:28:13.535Z,1.70
2019-05-09T18:30:43.339Z,1.63
2019-05-09T18:33:34.950Z,1.80
2019-05-09T18:36:04.902Z,2.50
2019-05-09T18:38:35.320Z,2.40
2019-05-09T18:41:07.956Z,3.03
2019-05-09T18:43:36.676Z,1.70
2019-05-09T18:46:08.368Z,1.93
2019-05-09T18:48:38.387Z,1.33
2019-05-09T18:51:08.192Z,1.40
2019-05-09T18:53:37.970Z,1.40
2019-05-09T18:56:07.841Z,1.90
2019-05-09T18:58:37.881Z,2.17
2019-05-09T19:01:07.672Z,1.90
2019-05-09T19:03:37.417Z,1.50
2019-05-09T19:06:07.184Z,1.30
2019-05-09T19:08:36.966Z,1.17
2019-05-09T19:11:06.944Z,1.30
2019-05-09T19:13:36.635Z,0.90
2019-05-09T19:16:25.361Z,1.00
2019-05-09T19:19:12.750Z,1.13
2019-05-09T19:21:49.013Z,1.20
2019-05-09T19:24:18.742Z,1.33
2019-05-09T19:30:09.464Z,0.90
2019-05-09T19:47:39.774Z,1.20
2019-05-09T19:50:11.249Z,0.93
2019-05-09T19:52:41.110Z,1.03
2019-05-09T19:55:11.057Z,1.00
2019-05-09T19:57:49.812Z,1.30
2019-05-09T20:00:19.971Z,1.27
2019-05-09T20:02:49.784Z,1.23
2019-05-09T20:05:19.888Z,1.20
2019-05-09T20:07:49.688Z,1.27
2019-05-09T20:10:36.683Z,1.27
2019-05-09T20:13:17.331Z,1.20
2019-05-09T20:16:01.957Z,1.23
2019-05-09T20:18:32.786Z,1.30
2019-05-09T20:21:02.548Z,1.40
2019-05-09T20:23:32.312Z,1.40
2019-05-09T20:26:20.911Z,1.20
2019-05-09T20:28:56.668Z,1.30
2019-05-09T20:31:26.392Z,1.20
2019-05-09T20:33:56.104Z,1.70
2019-05-09T20:36:26.096Z,1.10
2019-05-09T20:38:56.046Z,1.27
2019-05-09T20:41:26.034Z,1.07
2019-05-09T20:43:55.909Z,1.33
2019-05-09T20:46:25.950Z,1.00
2019-05-09T20:48:55.881Z,1.00
2019-05-09T20:51:26.752Z,0.70
2019-05-09T20:53:56.683Z,0.87
2019-05-09T20:59:43.100Z,0.73
2019-05-09T21:02:13.067Z,0.80
2019-05-09T21:04:43.046Z,0.80
2019-05-09T21:07:12.999Z,0.67
2019-05-09T21:09:42.882Z,0.80
2019-05-09T21:12:12.836Z,0.80
2019-05-09T21:14:42.710Z,0.80
2019-05-09T21:17:12.696Z,0.80
2019-05-09T21:19:42.681Z,0.70
2019-05-09T21:22:12.711Z,0.70
2019-05-09T21:24:42.689Z,0.73
2019-05-09T21:27:12.609Z,0.80
2019-05-09T21:29:42.456Z,1.00
2019-05-09T21:32:12.362Z,0.80
2019-05-09T21:34:42.085Z,1.27
2019-05-09T21:37:13.896Z,1.00
2019-05-09T21:39:43.359Z,0.90
2019-05-09T21:42:13.035Z,1.00
2019-05-09T21:44:42.812Z,1.00
2019-05-09T21:47:12.463Z,1.17
2019-05-09T21:49:42.203Z,1.00
2019-05-09T21:52:11.926Z,0.93
2019-05-09T21:54:41.703Z,1.00
2019-05-09T21:57:13.882Z,1.10
2019-05-09T21:59:43.690Z,1.00
2019-05-09T22:02:14.271Z,1.00
2019-05-09T22:04:44.050Z,1.20
2019-05-09T22:07:13.887Z,1.20
2019-05-09T22:09:43.696Z,1.30
2019-05-09T22:12:13.441Z,1.13
2019-05-09T22:14:43.298Z,1.10
2019-05-09T22:17:17.003Z,1.33
2019-05-09T22:19:46.827Z,1.30
2019-05-09T22:22:16.530Z,1.50
2019-05-09T22:24:46.214Z,1.40
2019-05-09T22:27:16.907Z,1.40
2019-05-09T22:29:46.631Z,1.67
2019-05-09T22:32:16.290Z,1.30
2019-05-09T22:34:46.072Z,1.50
2019-05-09T22:37:15.760Z,1.53
2019-05-09T22:39:45.446Z,1.73
2019-05-09T22:42:16.327Z,1.47
2019-05-09T22:44:46.069Z,1.50
2019-05-09T22:47:15.750Z,1.47
2019-05-09T22:49:45.442Z,1.87
2019-05-09T22:52:15.135Z,1.50
2019-05-09T22:54:44.782Z,1.70
2019-05-09T22:57:14.548Z,1.80
2019-05-09T22:59:45.046Z,1.90
2019-05-09T23:02:14.815Z,1.83
2019-05-09T23:04:44.571Z,2.07
2019-05-09T23:07:14.288Z,2.40
2019-05-09T23:09:44.059Z,1.80
2019-05-09T23:12:13.822Z,1.80
2019-05-09T23:14:43.579Z,1.77
2019-05-09T23:17:13.272Z,1.93
2019-05-09T23:19:43.027Z,1.67
2019-05-09T23:22:12.776Z,1.70
2019-05-09T23:24:44.623Z,1.90
2019-05-09T23:27:16.359Z,2.23
2019-05-09T23:29:46.094Z,1.60
2019-05-09T23:32:23.256Z,2.07
2019-05-09T23:34:52.973Z,1.97
2019-05-09T23:37:22.711Z,1.60
2019-05-09T23:39:52.681Z,1.63
2019-05-09T23:42:22.418Z,1.60
2019-05-09T23:44:52.113Z,1.90
2019-05-09T23:47:21.911Z,1.77
2019-05-09T23:49:51.591Z,1.80
2019-05-09T23:52:21.358Z,1.77
2019-05-09T23:55:08.590Z,1.80
2019-05-09T23:57:55.820Z,1.90
